Tropical Cyclones
[Index]
Main Index Home Page Stock Weather Photos Extreme Storms Discussion Storm News and Storm Chasing Reports Tropical Cyclones / Hurricanes / Typhoons Weather Data and Links Wild Fires / Bushfires Weather Observation Techniques Weather Picture Catalogue Tornado Pictures and Reports Stock Video Footage and DVDs for sale
Season 1985-1986 Tropical Cyclone ALISON Track Map
Season 1985-1986 Summaries: [BoM-AU] [JTWC-AU] [JTWC-SIO] [JTWC-SPAC] [JTWC-SH]
<<- Previous TC | BoM 1985-1986 Season | Next TC ->>

click for intensity scale information  Lat/long Grid: Show Hide

 Date Labels: Show Hide

Bureau of Meteorology Tropical Cyclone Data

Name: ALISON
Number: 691 / 198586_12

04 Apr 1986 18:00 UTC to 09 Apr 1986 18:00 UTC

    date/time    lat    long    hPa   cat  kts
1986-04-04 18   11.3   105.2   1003         23          
1986-04-05 00   11.0   104.6   1003         23          
1986-04-05 06   10.9   104.0   1003         23          
1986-04-05 12   10.9   103.4   1003         23          
1986-04-05 18   10.9   102.9   1003         23          
1986-04-06 00   10.8   102.4   1003         23          
1986-04-06 06   10.8   102.0   1001         27          
1986-04-06 12   10.7   101.6   1001         27          
1986-04-06 18   10.7   101.4   1000         31          
1986-04-07 00   10.7   101.2    998         33          
1986-04-07 06   10.8   100.7    997         35          
1986-04-07 12   11.1    99.6    997         35          
1986-04-07 18   11.1    98.7    995    1    39          
1986-04-07 21   11.1    98.3    993    1    43          
1986-04-08 00   11.3    97.9    991    1    45          
1986-04-08 03   11.4    97.4    991    1    45          
1986-04-08 06   11.4    96.9    991    1    45          
1986-04-08 09   11.4    96.4    991    1    45          
1986-04-08 12   11.6    96.0    990    1    47          
1986-04-08 16   11.7    95.2    990    1    47          
1986-04-08 18   11.8    94.9    988    1    51          
1986-04-09 00   11.9    93.5    984    2    54          
1986-04-09 06   12.6    92.1    982    2    58          
1986-04-09 12   13.5    91.0    978    2    64          
1986-04-09 18   14.1    89.8    974    2    68          
Winds are 10-min average.

Tropical cyclone tracks developed by Michael Bath using data from the Bureau of Meteorology and Google Maps.


[Australian Severe Weather index] [Copyright Notice] [Email Contacts] [Search This Site] [Privacy Policy]
Document: tropical_cyclone_alison.htm Updated: 30 May 2013